Time;durP1;ratioP1;P1;durP2;ratioP2;P2;SDS_P1;SDS_P2;PMS_P1;PMS_P2;Temp;Humidity;BMP_temperature;BMP_pressure;BME280_temperature;BME280_humidity;BME280_pressure;Samples;Min_cycle;Max_cycle;Signal;HPM_P1;HPM_P2
2022/12/08 00:04:24;;;;;;;78.90;25.50;;;;;;;2.81;89.50;99321.13;660731;1313;137965;-79
2022/12/08 00:19:28;;;;;;;42.60;17.70;;;;;;;2.81;89.05;99328.08;660850;1312;138336;-79
2022/12/08 00:34:32;;;;;;;11.30;6.20;;;;;;;2.86;88.27;99331.34;660264;1313;138366;-80
2022/12/08 00:49:35;;;;;;;13.60;7.10;;;;;;;2.81;87.26;99346.21;660371;1313;137858;-79
2022/12/08 01:04:38;;;;;;;12.70;6.10;;;;;;;2.74;87.07;99353.73;659988;1311;138262;-79
2022/12/08 01:19:42;;;;;;;14.10;6.30;;;;;;;2.68;87.62;99368.31;660130;1313;138090;-78
2022/12/08 01:34:45;;;;;;;103.80;30.20;;;;;;;2.75;88.41;99372.49;660795;1313;138255;-78
2022/12/08 01:49:48;;;;;;;21.70;12.00;;;;;;;2.80;89.01;99389.23;660778;1312;138604;-79
2022/12/08 02:04:52;;;;;;;18.60;9.90;;;;;;;2.77;89.63;99399.27;660828;1313;138578;-78
2022/12/08 02:20:53;;;;;;;22.50;11.50;;;;;;;2.68;90.79;99420.16;660865;1312;137900;-78
2022/12/08 02:36:26;;;;;;;7.80;5.50;;;;;;;2.82;90.10;99428.53;660939;1312;138350;-79
2022/12/08 02:51:29;;;;;;;12.00;6.00;;;;;;;2.85;89.67;99433.84;660457;1313;137796;-78
2022/12/08 03:06:54;;;;;;;9.70;6.00;;;;;;;2.85;90.04;99435.18;660840;1312;138304;-79
2022/12/08 03:22:02;;;;;;;33.80;18.50;;;;;;;2.85;90.61;99445.41;661032;1312;138105;-78
2022/12/08 03:37:05;;;;;;;12.00;6.20;;;;;;;2.79;91.18;99460.84;660607;1308;138080;-77
2022/12/08 03:52:08;;;;;;;11.00;6.40;;;;;;;2.83;91.19;99477.15;660906;1312;137990;-78
2022/12/08 04:07:12;;;;;;;11.80;5.90;;;;;;;2.94;90.88;99491.44;661026;1311;138197;-77
2022/12/08 04:22:15;;;;;;;11.10;6.30;;;;;;;2.81;91.54;99491.58;661162;1311;137810;-78
2022/12/08 04:37:18;;;;;;;13.10;6.20;;;;;;;2.83;92.54;99503.71;660884;1310;139068;-78
2022/12/08 04:52:21;;;;;;;9.50;5.40;;;;;;;2.86;92.88;99513.92;661002;1298;138324;-78
2022/12/08 05:07:24;;;;;;;10.10;5.90;;;;;;;2.86;93.00;99517.70;660756;1311;137703;-78
2022/12/08 05:22:28;;;;;;;8.30;5.40;;;;;;;2.87;92.22;99519.86;660605;1312;137979;-78
2022/12/08 05:37:31;;;;;;;6.50;5.10;;;;;;;2.87;90.94;99539.21;660667;1299;138236;-77
2022/12/08 05:52:34;;;;;;;10.30;6.30;;;;;;;2.95;90.44;99541.22;661143;1312;137615;-80
2022/12/08 06:07:38;;;;;;;15.10;7.40;;;;;;;2.92;89.78;99559.42;660776;1311;138983;-80
2022/12/08 06:22:41;;;;;;;16.10;9.60;;;;;;;2.92;87.60;99574.10;660854;1311;138281;-77
2022/12/08 06:37:44;;;;;;;20.90;10.40;;;;;;;2.93;84.55;99596.16;660630;1312;137886;-77
2022/12/08 06:52:48;;;;;;;14.00;8.60;;;;;;;2.85;83.03;99611.39;660505;1305;137496;-77
2022/12/08 07:08:08;;;;;;;28.40;12.90;;;;;;;2.85;81.77;99624.14;660900;1311;138237;-77
2022/12/08 07:23:11;;;;;;;12.60;7.80;;;;;;;2.81;80.72;99635.11;660686;1311;138034;-80
2022/12/08 07:38:14;;;;;;;73.50;36.60;;;;;;;2.73;78.64;99647.04;660654;1312;137916;-79
2022/12/08 07:53:17;;;;;;;17.80;11.00;;;;;;;2.88;77.84;99657.26;660991;1305;138218;-77
2022/12/08 08:08:21;;;;;;;19.50;9.80;;;;;;;2.78;77.93;99666.40;660881;1312;137708;-77
2022/12/08 08:23:24;;;;;;;16.10;9.90;;;;;;;2.76;77.63;99678.95;660681;1299;137941;-77
2022/12/08 08:38:28;;;;;;;19.30;9.50;;;;;;;2.68;76.47;99695.23;660873;1312;137759;-77
2022/12/08 08:53:31;;;;;;;9.70;6.50;;;;;;;2.98;75.78;99698.98;661037;1312;137606;-78
2022/12/08 09:08:34;;;;;;;7.60;4.90;;;;;;;2.75;75.75;99703.19;660790;1311;137702;-78
2022/12/08 09:23:38;;;;;;;12.80;6.90;;;;;;;2.79;75.47;99708.83;660796;1308;137711;-77
2022/12/08 09:38:41;;;;;;;61.30;26.60;;;;;;;2.79;76.51;99705.91;660821;1311;138842;-76
2022/12/08 09:53:51;;;;;;;43.70;19.80;;;;;;;3.07;76.95;99695.59;661066;1310;138446;-77
2022/12/08 10:09:22;;;;;;;22.20;11.70;;;;;;;3.38;76.69;99689.56;660762;1312;138166;-79
2022/12/08 10:24:32;;;;;;;44.40;21.80;;;;;;;3.19;77.65;99675.83;660930;1305;137804;-79
2022/12/08 10:39:38;;;;;;;20.40;11.60;;;;;;;3.52;78.22;99661.11;660988;1310;138746;-79
2022/12/08 10:54:42;;;;;;;50.90;21.20;;;;;;;3.40;79.06;99644.86;660837;1312;138256;-79
2022/12/08 11:09:49;;;;;;;27.40;13.90;;;;;;;3.69;79.37;99628.52;660609;1297;138088;-79
2022/12/08 11:25:02;;;;;;;23.70;15.70;;;;;;;3.80;78.88;99612.52;660730;1310;138521;-79
2022/12/08 11:40:29;;;;;;;26.90;13.30;;;;;;;3.85;79.28;99592.60;661023;1312;137761;-79
2022/12/08 11:55:35;;;;;;;39.40;19.40;;;;;;;3.83;79.99;99577.54;660775;1312;137678;-78
2022/12/08 12:10:55;;;;;;;25.70;13.10;;;;;;;3.81;81.54;99557.73;660850;1304;138487;-78
2022/12/08 12:26:01;;;;;;;99.50;50.80;;;;;;;3.59;84.02;99539.42;660778;1312;138099;-78
2022/12/08 12:41:07;;;;;;;32.90;19.20;;;;;;;3.33;87.55;99528.44;660817;1308;138456;-76
2022/12/08 12:56:11;;;;;;;296.90;120.20;;;;;;;3.33;89.27;99515.66;660741;1307;139017;-76
2022/12/08 13:11:15;;;;;;;28.80;16.40;;;;;;;3.23;91.40;99513.25;660891;1311;138685;-76
2022/12/08 13:26:23;;;;;;;32.70;16.40;;;;;;;3.09;94.66;99510.77;662128;1305;140016;-76
2022/12/08 13:41:42;;;;;;;33.50;17.20;;;;;;;3.20;97.72;99507.92;660930;1312;138342;-76
2022/12/08 13:56:47;;;;;;;32.00;17.00;;;;;;;3.42;99.60;99501.73;660865;1312;138626;-77
2022/12/08 14:12:20;;;;;;;47.50;26.60;;;;;;;3.55;99.90;99508.98;660712;1289;138460;-76
2022/12/08 14:27:26;;;;;;;67.80;29.10;;;;;;;3.56;100.00;99511.48;660758;1305;138408;-76
2022/12/08 14:42:29;;;;;;;108.00;40.90;;;;;;;3.59;100.00;99511.94;661187;1312;138910;-77
2022/12/08 14:57:34;;;;;;;63.00;29.30;;;;;;;3.63;100.00;99519.42;661225;1312;139553;-76
2022/12/08 15:12:37;;;;;;;51.00;26.00;;;;;;;3.69;100.00;99522.30;660845;1312;138427;-76
2022/12/08 15:27:41;;;;;;;57.10;29.50;;;;;;;3.78;100.00;99518.23;660909;1313;138751;-76
2022/12/08 15:42:52;;;;;;;62.30;28.80;;;;;;;3.93;100.00;99528.70;661158;1311;138630;-76
2022/12/08 15:57:56;;;;;;;57.20;28.30;;;;;;;3.94;100.00;99527.77;661185;1312;138392;-76
2022/12/08 16:29:00;;;;;;;94.90;40.10;;;;;;;4.03;100.00;99520.41;660936;1312;138618;-76
2022/12/08 16:44:04;;;;;;;129.40;54.40;;;;;;;4.01;100.00;99521.23;661308;1312;138783;-76
2022/12/08 16:59:08;;;;;;;113.00;71.80;;;;;;;3.92;100.00;99512.38;660836;1312;138777;-78
2022/12/08 17:14:12;;;;;;;112.40;45.80;;;;;;;3.92;100.00;99519.13;661073;1313;140476;-77
2022/12/08 17:29:17;;;;;;;51.40;28.50;;;;;;;4.08;100.00;99520.23;661068;1305;139070;-77
2022/12/08 17:44:20;;;;;;;52.50;26.30;;;;;;;4.07;100.00;99517.51;661219;1304;138199;-77
2022/12/08 17:59:26;;;;;;;55.20;26.90;;;;;;;4.06;100.00;99509.10;660815;1313;138289;-78
2022/12/08 18:14:29;;;;;;;167.40;64.60;;;;;;;4.06;100.00;99504.13;660987;1299;138176;-78
2022/12/08 18:29:32;;;;;;;47.10;24.50;;;;;;;4.08;100.00;99495.44;661004;1312;138717;-77
2022/12/08 18:44:36;;;;;;;53.00;25.00;;;;;;;4.00;100.00;99491.23;660829;1310;138176;-79
2022/12/08 18:59:40;;;;;;;66.50;33.60;;;;;;;4.03;100.00;99483.21;660953;1311;138591;-79
2022/12/08 19:14:43;;;;;;;55.80;30.90;;;;;;;4.04;100.00;99465.31;660932;1313;138689;-77
2022/12/08 19:29:46;;;;;;;85.10;34.60;;;;;;;4.02;100.00;99464.61;660820;1311;138853;-77
2022/12/08 19:44:52;;;;;;;98.00;33.70;;;;;;;3.98;100.00;99461.05;660846;1313;138120;-77
2022/12/08 19:59:56;;;;;;;52.90;23.20;;;;;;;4.07;100.00;99455.54;661123;1312;138362;-77
2022/12/08 20:14:59;;;;;;;63.60;31.00;;;;;;;4.12;100.00;99470.05;660916;1313;138013;-77
2022/12/08 20:30:03;;;;;;;57.00;26.30;;;;;;;4.17;100.00;99472.80;661023;1304;139114;-78
2022/12/08 20:45:08;;;;;;;51.00;26.20;;;;;;;4.23;100.00;99480.55;660747;1304;139422;-77
2022/12/08 21:00:12;;;;;;;60.80;28.20;;;;;;;4.27;100.00;99481.25;660802;1311;138603;-78
2022/12/08 21:15:16;;;;;;;57.50;26.20;;;;;;;4.24;100.00;99497.55;661260;1312;138286;-78
2022/12/08 21:30:19;;;;;;;48.10;25.30;;;;;;;4.21;100.00;99508.49;660955;1311;138561;-78
2022/12/08 21:45:23;;;;;;;61.40;29.40;;;;;;;4.08;100.00;99522.63;660840;1312;139323;-77
2022/12/08 22:00:26;;;;;;;55.20;26.70;;;;;;;3.90;100.00;99528.41;661109;1310;138777;-78
2022/12/08 22:15:31;;;;;;;59.40;28.40;;;;;;;3.89;100.00;99529.69;660947;1312;138520;-78
2022/12/08 22:30:35;;;;;;;63.40;31.30;;;;;;;3.73;100.00;99530.19;660911;1305;138465;-77
2022/12/08 22:45:41;;;;;;;56.00;27.20;;;;;;;3.62;100.00;99538.21;661008;1298;138305;-76
2022/12/08 23:00:45;;;;;;;52.20;25.00;;;;;;;3.57;100.00;99544.96;660776;1313;138169;-77
2022/12/08 23:15:49;;;;;;;39.10;20.50;;;;;;;3.61;100.00;99546.58;662485;1303;138623;-77
2022/12/08 23:30:52;;;;;;;51.00;23.90;;;;;;;3.57;100.00;99542.34;660761;1305;137930;-75
2022/12/08 23:45:56;;;;;;;47.80;22.50;;;;;;;3.68;100.00;99544.19;661049;1312;138326;-75
